Newport, VT

12:01 AM EDT on May 22, 2018 (GMT -0400)
Newport State

Weather History for KEFK - November, 2013

Change the Weather History Date:

Tuesday, November 19, 2013

  Actual Average Record
Temperature  
Mean Temperature 34 °F -  
Max Temperature 40 °F 39 °F 68 °F (1941)
Min Temperature 28 °F 23 °F 2 °F (1936)
Degree Days  
Heating Degree Days 31    
Moisture  
Dew Point 17 °F    
Average Humidity 56    
Maximum Humidity 70    
Minimum Humidity 45    
Precipitation  
Precipitation 0.00 in - - ()
Sea Level Pressure  
Sea Level Pressure 29.97 in    
Wind  
Wind Speed 14 mph (WNW)    
Max Wind Speed 22 mph    
Max Gust Speed 33 mph    
Visibility 10 miles    
Events Snow    
Averages and records for this station are not official NWS values.
T = Trace of Precipitation, MM = Missing Value Source: NWS Daily Summary

Daily Weather History Graph

Daily Weather History Graph

Search for Another Location

Airport or City:

Astronomy

Nov. 19, 2013 Rise Set
Actual Time 6:51 AM EST 4:16 PM EST
Civil Twilight 6:19 AM EST 4:48 PM EST
Nautical Twilight 5:44 AM EST 5:24 PM EST
Astronomical Twilight 5:09 AM EST 5:59 PM EST
Moon 6:04 PM EST (11/19) 8:29 AM EST (11/19)
Length of Visible Light 10h 28m
Length of Day
9h 24m
Waning Gibbous, 96% of the Moon is Illuminated
Nov 19
Waning Gibbous
Nov 25
Last Quarter
Dec 2
New
Dec 9
First Quarter
Dec 17
Full

Hourly Weather History & Observations

Time (EST) Temp. Windchill Dew Point Humidity Pressure Visibility Wind Dir Wind Speed Gust Speed Precip Events Conditions
12:15 AM 40.1 °F 30.7 °F 24.3 °F 53% 29.60 in 10.0 mi WSW 19.6 mph 24.2 mph N/A   Overcast
12:35 AM 39.2 °F 34.2 °F 25.9 °F 59% 29.60 in 10.0 mi West 6.9 mph 16.1 mph N/A   Overcast
12:55 AM 37.9 °F 30.9 °F 26.6 °F 64% 29.61 in 5.0 mi WSW 10.4 mph - N/A Snow Light Snow
1:15 AM 37.8 °F 30.2 °F 24.4 °F 59% 29.61 in 10.0 mi West 11.5 mph 21.9 mph N/A   Overcast
1:35 AM 36.9 °F 25.9 °F 24.1 °F 60% 29.63 in 10.0 mi WNW 21.9 mph 28.8 mph N/A Snow Light Snow
1:55 AM 33.1 °F 22.6 °F 24.1 °F 70% 29.65 in 7.0 mi WNW 16.1 mph 32.2 mph N/A Snow Light Snow
2:15 AM 33.1 °F 23.4 °F 21.6 °F 63% 29.66 in 10.0 mi West 13.8 mph 25.3 mph N/A Snow Light Snow
2:35 AM 32.9 °F 23.7 °F 19.9 °F 59% 29.68 in 10.0 mi West 12.7 mph 24.2 mph N/A Snow Light Snow
2:55 AM 32.5 °F 22.3 °F 19.0 °F 58% 29.68 in 10.0 mi West 15.0 mph 24.2 mph N/A   Overcast
3:15 AM 32.9 °F 23.2 °F 17.4 °F 53% 29.70 in 10.0 mi West 13.8 mph 26.5 mph N/A   Overcast
3:35 AM 32.5 °F 21.5 °F 16.7 °F 52% 29.70 in 10.0 mi West 17.3 mph 26.5 mph N/A   Overcast
3:55 AM 32.2 °F 21.1 °F 16.5 °F 53% 29.72 in 10.0 mi West 17.3 mph 31.1 mph N/A   Overcast
4:15 AM 32.0 °F 19.8 °F 15.8 °F 51% 29.73 in 10.0 mi West 20.7 mph 33.4 mph N/A   Overcast
4:35 AM 32.0 °F 24.2 °F 16.2 °F 52% 29.75 in 10.0 mi West 9.2 mph 16.1 mph N/A   Overcast
4:55 AM 31.8 °F 21.4 °F 15.6 °F 51% 29.76 in 10.0 mi WNW 15.0 mph 21.9 mph N/A   Overcast
5:15 AM 31.6 °F 21.2 °F 16.7 °F 54% 29.77 in 10.0 mi WNW 15.0 mph 21.9 mph N/A   Overcast
5:35 AM 31.1 °F 21.4 °F 15.1 °F 52% 29.78 in 10.0 mi WNW 12.7 mph 26.5 mph N/A   Overcast
5:55 AM 30.9 °F 19.8 °F 15.3 °F 52% 29.79 in 10.0 mi West 16.1 mph 23.0 mph N/A   Overcast
6:15 AM 30.7 °F 20.4 °F 15.1 °F 52% 29.81 in 10.0 mi West 13.8 mph 25.3 mph N/A   Overcast
6:35 AM 30.9 °F 18.7 °F 15.4 °F 53% 29.82 in 10.0 mi West 19.6 mph 27.6 mph N/A   Overcast
6:55 AM 30.7 °F 19.2 °F 15.6 °F 54% 29.83 in 10.0 mi West 17.3 mph 29.9 mph N/A   Overcast
7:15 AM 30.7 °F 18.8 °F 16.5 °F 56% 29.84 in 10.0 mi West 18.4 mph 28.8 mph N/A Snow Light Snow
7:35 AM 30.6 °F 18.2 °F 16.7 °F 56% 29.85 in 10.0 mi West 19.6 mph 26.5 mph N/A Snow Light Snow
7:55 AM 30.6 °F 21.8 °F 16.5 °F 56% 29.87 in 10.0 mi West 10.4 mph 23.0 mph N/A   Overcast
8:15 AM 30.7 °F 20.9 °F 16.0 °F 54% 29.88 in 10.0 mi WNW 12.7 mph 21.9 mph N/A Snow Light Snow
8:35 AM 30.7 °F 21.4 °F 15.6 °F 54% 29.89 in 10.0 mi WNW 11.5 mph 25.3 mph N/A Snow Light Snow
8:55 AM 30.6 °F 20.2 °F 15.3 °F 53% 29.90 in 10.0 mi West 13.8 mph 26.5 mph N/A   Overcast
9:15 AM 30.6 °F 20.7 °F 15.4 °F 54% 29.90 in 10.0 mi WNW 12.7 mph 21.9 mph N/A   Mostly Cloudy
9:35 AM 30.6 °F 19.8 °F 14.9 °F 52% 29.92 in 10.0 mi West 15.0 mph 28.8 mph N/A   Overcast
9:55 AM 30.7 °F 19.2 °F 14.7 °F 52% 29.92 in 10.0 mi WNW 17.3 mph 25.3 mph N/A   Overcast
10:15 AM 30.9 °F 19.1 °F 14.0 °F 50% 29.93 in 10.0 mi WNW 18.4 mph 29.9 mph N/A   Overcast
10:35 AM 31.1 °F 20.1 °F 13.6 °F 48% 29.93 in 10.0 mi WNW 16.1 mph 29.9 mph N/A   Overcast
10:55 AM 31.6 °F 20.0 °F 14.2 °F 49% 29.94 in 10.0 mi WNW 18.4 mph 23.0 mph N/A   Overcast
11:15 AM 32.0 °F 23.6 °F 14.0 °F 48% 29.94 in 10.0 mi WNW 10.4 mph 19.6 mph N/A   Overcast
11:35 AM 32.0 °F 20.8 °F 13.3 °F 46% 29.95 in 10.0 mi West 17.3 mph 27.6 mph N/A   Overcast
11:55 AM 32.0 °F 20.1 °F 12.7 °F 45% 29.96 in 10.0 mi WNW 19.6 mph 28.8 mph N/A   Overcast
12:15 PM 32.0 °F 22.1 °F 14.4 °F 48% 29.97 in 10.0 mi WNW 13.8 mph 25.3 mph N/A   Overcast
12:35 PM 32.0 °F 21.2 °F 14.5 °F 49% 29.98 in 10.0 mi WNW 16.1 mph 23.0 mph N/A   Overcast
12:55 PM 32.0 °F 21.2 °F 14.7 °F 49% 29.99 in 10.0 mi West 16.1 mph 27.6 mph N/A   Overcast
1:15 PM 31.6 °F 22.1 °F 15.8 °F 52% 30.00 in 10.0 mi WNW 12.7 mph 24.2 mph N/A   Overcast
1:35 PM 31.8 °F 24.6 °F 15.6 °F 51% 30.00 in 10.0 mi WNW 8.1 mph 24.2 mph N/A   Overcast
1:55 PM 31.5 °F 21.8 °F 15.8 °F 52% 30.01 in 10.0 mi West 12.7 mph 25.3 mph N/A   Overcast
2:15 PM 31.1 °F 19.7 °F 16.2 °F 54% 30.02 in 10.0 mi West 17.3 mph 25.3 mph N/A   Overcast
2:35 PM 30.7 °F 22.6 °F 17.2 °F 57% 30.03 in 10.0 mi WNW 9.2 mph 25.3 mph N/A   Overcast
2:55 PM 30.7 °F 22.0 °F 16.7 °F 56% 30.05 in 10.0 mi West 10.4 mph 23.0 mph N/A   Overcast
3:15 PM 30.6 °F 19.8 °F 16.7 °F 56% 30.06 in 10.0 mi West 15.0 mph 25.3 mph N/A Snow Light Snow
3:35 PM 30.6 °F 22.4 °F 16.5 °F 56% 30.07 in 10.0 mi West 9.2 mph - N/A   Overcast
3:55 PM 30.6 °F 21.8 °F 15.8 °F 54% 30.08 in 10.0 mi West 10.4 mph 19.6 mph N/A   Overcast
4:15 PM 30.6 °F 21.2 °F 16.2 °F 55% 30.09 in 10.0 mi WNW 11.5 mph 24.2 mph N/A   Overcast
4:35 PM 30.2 °F 21.9 °F 16.3 °F 56% 30.11 in 10.0 mi West 9.2 mph 18.4 mph N/A   Overcast
4:55 PM 30.0 °F 20.0 °F 16.7 °F 58% 30.12 in 10.0 mi WNW 12.7 mph 19.6 mph N/A   Overcast
5:15 PM 29.8 °F 21.5 °F 17.4 °F 60% 30.13 in 10.0 mi West 9.2 mph 18.4 mph N/A   Overcast
5:35 PM 29.8 °F 20.9 °F 17.6 °F 60% 30.15 in 10.0 mi West 10.4 mph 19.6 mph N/A   Overcast
5:55 PM 29.3 °F 22.3 °F 18.5 °F 64% 30.15 in 10.0 mi West 6.9 mph - N/A Snow Light Snow
6:15 PM 29.3 °F 22.3 °F 18.5 °F 64% 30.16 in 10.0 mi NW 6.9 mph - N/A   Overcast
6:35 PM 29.3 °F 20.8 °F 18.1 °F 63% 30.17 in 10.0 mi WNW 9.2 mph - N/A   Overcast
6:55 PM 29.3 °F 21.5 °F 17.6 °F 62% 30.17 in 10.0 mi WNW 8.1 mph 16.1 mph N/A   Overcast
7:15 PM 29.3 °F 22.3 °F 17.6 °F 62% 30.19 in 10.0 mi West 6.9 mph 16.1 mph N/A   Overcast
7:35 PM 29.8 °F 21.5 °F 16.3 °F 57% 30.19 in 10.0 mi WNW 9.2 mph 21.9 mph N/A   Overcast
7:55 PM 29.3 °F 23.2 °F 16.9 °F 60% 30.20 in 10.0 mi NW 5.8 mph 21.9 mph N/A Snow Light Snow
8:15 PM 28.8 °F 22.6 °F 17.6 °F 63% 30.22 in 10.0 mi WNW 5.8 mph - N/A Snow Light Snow
8:35 PM 28.9 °F 23.9 °F 18.7 °F 66% 30.23 in 10.0 mi NNW 4.6 mph - N/A Snow Light Snow
8:55 PM 28.8 °F 20.2 °F 19.0 °F 67% 30.24 in 5.0 mi NW 9.2 mph 23.0 mph N/A Snow Light Snow
9:15 PM 28.8 °F 21.7 °F 17.8 °F 64% 30.25 in 10.0 mi North 6.9 mph - N/A   Overcast
9:35 PM 28.9 °F 23.9 °F 18.1 °F 64% 30.25 in 10.0 mi NNW 4.6 mph - N/A Snow Light Snow
9:55 PM 28.6 °F 22.4 °F 15.1 °F 57% 30.26 in 10.0 mi NW 5.8 mph 16.1 mph N/A   Overcast
10:15 PM 28.2 °F 19.5 °F 13.1 °F 53% 30.27 in 10.0 mi NW 9.2 mph 16.1 mph N/A   Mostly Cloudy
10:35 PM 28.0 °F 19.3 °F 13.6 °F 55% 30.28 in 10.0 mi WNW 9.2 mph - N/A   Mostly Cloudy
10:55 PM 28.0 °F 18.6 °F 13.8 °F 55% 30.29 in 10.0 mi WNW 10.4 mph 16.1 mph N/A   Mostly Cloudy
11:15 PM 28.4 °F 20.4 °F 12.4 °F 51% 30.29 in 10.0 mi WNW 8.1 mph 19.6 mph N/A   Overcast
11:35 PM 28.4 °F 20.4 °F 12.4 °F 51% 30.30 in 10.0 mi WNW 8.1 mph - N/A   Overcast
11:55 PM 28.4 °F 20.4 °F 12.2 °F 51% 30.30 in 10.0 mi WNW 8.1 mph - N/A   Overcast